Stone Harbor, New Jersey
Current Conditions -  °F | °C
As of 5:15 AM on Monday 26 Jan 2015 (Local Time) from KWWD Reporting Station
Scattered Clouds Scattered Clouds  
Wind Chill: -3°   Ceiling: Unl
Heat Index:   Visibility: 10mi
Dew Point: -2°   Wind: 18mph
Humidity: 70%   Direction: 50°NE
Pressure: 29.84"   Gusts: 22mph
Location:  39.05°N, 74.76°W
Report Text: KWWD 261015Z AUTO 05016G19KT 10SM SCT120 03/M02 A2984 RMK AO1
Loading
Personal Weather Stations






























Interactive Weather Map New forecast layout! Learn more

10-Day Weather Forecast

Advertisements
Track Severe Weather on mobile